sensor_id;sensor_type;location;lat;lon;timestamp;pressure;altitude;pressure_sealevel;temperature;humidity
60307;BME280;46155;52.364;6.580;2022-12-18T04:01:12;102663.97;;;-6.60;100.00
60307;BME280;46155;52.364;6.580;2022-12-18T04:03:39;102671.41;;;-6.61;100.00
60307;BME280;46155;52.364;6.580;2022-12-18T04:06:05;102667.22;;;-6.61;100.00
60307;BME280;46155;52.364;6.580;2022-12-18T04:08:32;102668.81;;;-6.67;100.00
60307;BME280;46155;52.364;6.580;2022-12-18T04:10:59;102664.88;;;-6.65;100.00
60307;BME280;46155;52.364;6.580;2022-12-18T04:13:30;102664.19;;;-6.64;100.00
60307;BME280;46155;52.364;6.580;2022-12-18T04:15:56;102658.63;;;-6.61;100.00
60307;BME280;46155;52.364;6.580;2022-12-18T04:18:22;102667.22;;;-6.61;100.00
60307;BME280;46155;52.364;6.580;2022-12-18T04:20:47;102665.56;;;-6.66;100.00
60307;BME280;46155;52.364;6.580;2022-12-18T04:23:13;102671.19;;;-6.57;100.00
60307;BME280;46155;52.364;6.580;2022-12-18T04:25:38;102659.53;;;-6.61;100.00
60307;BME280;46155;52.364;6.580;2022-12-18T04:28:03;102663.06;;;-6.60;100.00
60307;BME280;46155;52.364;6.580;2022-12-18T04:30:29;102666.53;;;-6.60;100.00
60307;BME280;46155;52.364;6.580;2022-12-18T04:32:54;102659.09;;;-6.58;100.00
60307;BME280;46155;52.364;6.580;2022-12-18T04:35:19;102662.84;;;-6.56;100.00
60307;BME280;46155;52.364;6.580;2022-12-18T04:37:44;102661.22;;;-6.55;100.00
60307;BME280;46155;52.364;6.580;2022-12-18T04:40:10;102658.66;;;-6.55;100.00
60307;BME280;46155;52.364;6.580;2022-12-18T04:42:36;102656.31;;;-6.60;100.00
60307;BME280;46155;52.364;6.580;2022-12-18T04:45:01;102660.06;;;-6.58;100.00
60307;BME280;46155;52.364;6.580;2022-12-18T04:47:26;102661.91;;;-6.57;100.00
60307;BME280;46155;52.364;6.580;2022-12-18T04:49:52;102645.69;;;-6.51;100.00
60307;BME280;46155;52.364;6.580;2022-12-18T04:52:17;102650.78;;;-6.51;100.00
60307;BME280;46155;52.364;6.580;2022-12-18T04:54:42;102641.47;;;-6.57;100.00
60307;BME280;46155;52.364;6.580;2022-12-18T04:57:08;102636.34;;;-6.57;100.00
60307;BME280;46155;52.364;6.580;2022-12-18T04:59:33;102628.22;;;-6.60;100.00
60307;BME280;46155;52.364;6.580;2022-12-18T05:01:58;102638.91;;;-6.57;100.00
60307;BME280;46155;52.364;6.580;2022-12-18T05:04:23;102649.88;;;-6.52;100.00
60307;BME280;46155;52.364;6.580;2022-12-18T05:06:49;102648.91;;;-6.52;100.00
60307;BME280;46155;52.364;6.580;2022-12-18T05:09:14;102652.16;;;-6.53;100.00
60307;BME280;46155;52.364;6.580;2022-12-18T05:11:39;102655.00;;;-6.52;100.00
60307;BME280;46155;52.364;6.580;2022-12-18T05:14:05;102647.56;;;-6.50;100.00
60307;BME280;46155;52.364;6.580;2022-12-18T05:16:30;102657.41;;;-6.31;100.00
60307;BME280;46155;52.364;6.580;2022-12-18T05:18:55;102663.97;;;-6.21;100.00
60307;BME280;46155;52.364;6.580;2022-12-18T05:21:20;102662.88;;;-6.12;100.00
60307;BME280;46155;52.364;6.580;2022-12-18T05:23:46;102661.25;;;-6.06;100.00
60307;BME280;46155;52.364;6.580;2022-12-18T05:26:15;102668.94;;;-6.06;98.76
60307;BME280;46155;52.364;6.580;2022-12-18T05:28:41;102667.25;;;-6.11;97.76
60307;BME280;46155;52.364;6.580;2022-12-18T05:31:06;102659.59;;;-6.11;97.44
60307;BME280;46155;52.364;6.580;2022-12-18T05:33:33;102675.16;;;-6.10;97.74
60307;BME280;46155;52.364;6.580;2022-12-18T05:36:00;102672.38;;;-6.11;96.60
60307;BME280;46155;52.364;6.580;2022-12-18T05:38:27;102667.03;;;-6.13;96.43
60307;BME280;46155;52.364;6.580;2022-12-18T05:40:53;102672.34;;;-6.17;95.82
60307;BME280;46155;52.364;6.580;2022-12-18T05:43:19;102670.97;;;-6.20;96.18
60307;BME280;46155;52.364;6.580;2022-12-18T05:45:45;102673.94;;;-6.29;95.69
60307;BME280;46155;52.364;6.580;2022-12-18T05:48:11;102677.63;;;-6.32;96.02
60307;BME280;46155;52.364;6.580;2022-12-18T05:50:39;102685.75;;;-6.35;95.48
60307;BME280;46155;52.364;6.580;2022-12-18T05:53:05;102686.69;;;-6.34;95.61
60307;BME280;46155;52.364;6.580;2022-12-18T05:55:34;102693.44;;;-6.35;94.93
60307;BME280;46155;52.364;6.580;2022-12-18T05:58:00;102706.16;;;-6.41;94.51
60307;BME280;46155;52.364;6.580;2022-12-18T06:00:26;102701.50;;;-6.43;94.95
60307;BME280;46155;52.364;6.580;2022-12-18T06:02:51;102698.19;;;-6.48;94.44
60307;BME280;46155;52.364;6.580;2022-12-18T06:05:17;102687.25;;;-6.52;94.20
60307;BME280;46155;52.364;6.580;2022-12-18T06:07:42;102702.38;;;-6.48;93.63
60307;BME280;46155;52.364;6.580;2022-12-18T06:10:07;102700.50;;;-6.49;94.55
60307;BME280;46155;52.364;6.580;2022-12-18T06:12:33;102695.88;;;-6.52;93.13
60307;BME280;46155;52.364;6.580;2022-12-18T06:15:01;102715.16;;;-6.48;93.94
60307;BME280;46155;52.364;6.580;2022-12-18T06:17:30;102717.50;;;-6.44;93.22
60307;BME280;46155;52.364;6.580;2022-12-18T06:19:56;102704.25;;;-6.47;93.16
60307;BME280;46155;52.364;6.580;2022-12-18T06:22:21;102710.94;;;-6.53;92.50
60307;BME280;46155;52.364;6.580;2022-12-18T06:24:47;102713.00;;;-6.57;92.45
60307;BME280;46155;52.364;6.580;2022-12-18T06:27:12;102700.84;;;-6.69;92.51
60307;BME280;46155;52.364;6.580;2022-12-18T06:29:38;102703.81;;;-6.77;93.69
60307;BME280;46155;52.364;6.580;2022-12-18T06:32:03;102702.13;;;-6.82;93.64
60307;BME280;46155;52.364;6.580;2022-12-18T06:34:28;102704.88;;;-6.86;94.27
60307;BME280;46155;52.364;6.580;2022-12-18T06:36:54;102688.28;;;-7.00;93.98
60307;BME280;46155;52.364;6.580;2022-12-18T06:39:19;102684.78;;;-7.00;93.75
60307;BME280;46155;52.364;6.580;2022-12-18T06:41:44;102697.13;;;-6.98;94.52
60307;BME280;46155;52.364;6.580;2022-12-18T06:44:09;102685.94;;;-7.04;94.53
60307;BME280;46155;52.364;6.580;2022-12-18T06:46:35;102680.53;;;-7.11;94.61
60307;BME280;46155;52.364;6.580;2022-12-18T06:49:00;102678.66;;;-7.12;95.64
60307;BME280;46155;52.364;6.580;2022-12-18T06:51:26;102676.34;;;-7.11;95.24
60307;BME280;46155;52.364;6.580;2022-12-18T06:53:51;102642.59;;;-7.25;96.31
60307;BME280;46155;52.364;6.580;2022-12-18T06:56:17;102669.94;;;-7.03;95.77
60307;BME280;46155;52.364;6.580;2022-12-18T06:58:42;102655.81;;;-6.95;95.73
60307;BME280;46155;52.364;6.580;2022-12-18T07:01:09;102655.88;;;-6.89;94.68
60307;BME280;46155;52.364;6.580;2022-12-18T07:03:36;102662.19;;;-6.87;95.10
60307;BME280;46155;52.364;6.580;2022-12-18T07:06:01;102646.34;;;-6.90;94.82
60307;BME280;46155;52.364;6.580;2022-12-18T07:08:28;102632.41;;;-6.93;94.76
60307;BME280;46155;52.364;6.580;2022-12-18T07:10:54;102649.94;;;-6.79;94.83
60307;BME280;46155;52.364;6.580;2022-12-18T07:13:19;102652.97;;;-6.76;94.87
60307;BME280;46155;52.364;6.580;2022-12-18T07:15:44;102649.06;;;-6.68;95.79
60307;BME280;46155;52.364;6.580;2022-12-18T07:18:10;102636.34;;;-6.57;96.23
60307;BME280;46155;52.364;6.580;2022-12-18T07:20:35;102632.22;;;-6.50;96.02
60307;BME280;46155;52.364;6.580;2022-12-18T07:23:04;102634.06;;;-6.49;95.86
60307;BME280;46155;52.364;6.580;2022-12-18T07:25:34;102626.19;;;-6.45;95.52
60307;BME280;46155;52.364;6.580;2022-12-18T07:28:00;102633.19;;;-6.44;96.37
60307;BME280;46155;52.364;6.580;2022-12-18T07:30:25;102624.84;;;-6.43;96.05
60307;BME280;46155;52.364;6.580;2022-12-18T07:32:50;102635.56;;;-6.34;96.55
60307;BME280;46155;52.364;6.580;2022-12-18T07:35:15;102640.22;;;-6.32;96.26
60307;BME280;46155;52.364;6.580;2022-12-18T07:37:41;102651.41;;;-6.26;96.88
60307;BME280;46155;52.364;6.580;2022-12-18T07:40:08;102648.16;;;-6.25;96.75
60307;BME280;46155;52.364;6.580;2022-12-18T07:42:33;102629.28;;;-6.31;96.99
60307;BME280;46155;52.364;6.580;2022-12-18T07:45:00;102643.53;;;-6.16;96.99
60307;BME280;46155;52.364;6.580;2022-12-18T07:47:27;102657.00;;;-6.17;97.79
60307;BME280;46155;52.364;6.580;2022-12-18T07:49:52;102662.09;;;-6.23;97.25
60307;BME280;46155;52.364;6.580;2022-12-18T07:52:18;102639.03;;;-6.34;98.25
60307;BME280;46155;52.364;6.580;2022-12-18T07:54:43;102645.81;;;-6.29;98.30
60307;BME280;46155;52.364;6.580;2022-12-18T07:57:09;102614.16;;;-6.41;97.94
60307;BME280;46155;52.364;6.580;2022-12-18T07:59:34;102639.81;;;-6.24;98.68
60307;BME280;46155;52.364;6.580;2022-12-18T08:02:00;102629.78;;;-6.28;98.45
60307;BME280;46155;52.364;6.580;2022-12-18T08:04:25;102644.22;;;-6.17;98.67
60307;BME280;46155;52.364;6.580;2022-12-18T08:06:51;102647.53;;;-6.12;98.65
60307;BME280;46155;52.364;6.580;2022-12-18T08:09:16;102633.31;;;-6.16;98.54
60307;BME280;46155;52.364;6.580;2022-12-18T08:11:42;102625.88;;;-6.14;98.42
60307;BME280;46155;52.364;6.580;2022-12-18T08:14:07;102612.88;;;-6.10;98.58
60307;BME280;46155;52.364;6.580;2022-12-18T08:16:32;102626.13;;;-6.07;98.10
60307;BME280;46155;52.364;6.580;2022-12-18T08:18:58;102632.41;;;-6.16;98.13
60307;BME280;46155;52.364;6.580;2022-12-18T08:21:30;102628.47;;;-6.09;99.00
60307;BME280;46155;52.364;6.580;2022-12-18T08:23:57;102628.97;;;-6.00;99.10
60307;BME280;46155;52.364;6.580;2022-12-18T08:26:23;102628.03;;;-5.95;99.51
60307;BME280;46155;52.364;6.580;2022-12-18T08:28:50;102625.47;;;-5.95;99.59
60307;BME280;46155;52.364;6.580;2022-12-18T08:31:15;102626.88;;;-5.85;99.36
60307;BME280;46155;52.364;6.580;2022-12-18T08:33:41;102625.53;;;-5.72;99.46
60307;BME280;46155;52.364;6.580;2022-12-18T08:36:08;102609.50;;;-5.60;99.04
60307;BME280;46155;52.364;6.580;2022-12-18T08:38:34;102602.75;;;-5.65;98.77
60307;BME280;46155;52.364;6.580;2022-12-18T08:41:03;102597.63;;;-5.65;98.21
60307;BME280;46155;52.364;6.580;2022-12-18T08:43:29;102587.41;;;-5.65;98.67
60307;BME280;46155;52.364;6.580;2022-12-18T08:46:16;102598.09;;;-5.62;98.21
60307;BME280;46155;52.364;6.580;2022-12-18T08:48:41;102614.41;;;-5.56;97.97
60307;BME280;46155;52.364;6.580;2022-12-18T08:51:07;102615.34;;;-5.49;98.20
60307;BME280;46155;52.364;6.580;2022-12-18T08:53:34;102596.25;;;-5.51;98.67
60307;BME280;46155;52.364;6.580;2022-12-18T08:56:00;102600.91;;;-5.38;98.20
60307;BME280;46155;52.364;6.580;2022-12-18T08:58:25;102602.78;;;-5.25;98.26
60307;BME280;46155;52.364;6.580;2022-12-18T09:00:50;102603.00;;;-5.18;99.17
60307;BME280;46155;52.364;6.580;2022-12-18T09:03:17;102592.53;;;-5.08;98.90
60307;BME280;46155;52.364;6.580;2022-12-18T09:05:43;102597.44;;;-5.04;99.01
60307;BME280;46155;52.364;6.580;2022-12-18T09:08:11;102596.00;;;-5.02;99.16
60307;BME280;46155;52.364;6.580;2022-12-18T09:10:43;102589.72;;;-4.87;98.66
60307;BME280;46155;52.364;6.580;2022-12-18T09:13:10;102598.53;;;-4.79;98.39
60307;BME280;46155;52.364;6.580;2022-12-18T09:15:44;102599.97;;;-4.81;98.57
60307;BME280;46155;52.364;6.580;2022-12-18T09:18:11;102602.31;;;-4.83;98.70
60307;BME280;46155;52.364;6.580;2022-12-18T09:20:37;102597.63;;;-4.80;99.36
60307;BME280;46155;52.364;6.580;2022-12-18T09:23:03;102612.28;;;-4.62;99.86
60307;BME280;46155;52.364;6.580;2022-12-18T09:25:29;102617.13;;;-4.46;98.62
60307;BME280;46155;52.364;6.580;2022-12-18T09:28:02;102611.03;;;-4.36;99.02
60307;BME280;46155;52.364;6.580;2022-12-18T09:30:28;102606.81;;;-4.24;99.08
60307;BME280;46155;52.364;6.580;2022-12-18T09:32:53;102604.44;;;-4.17;98.34
60307;BME280;46155;52.364;6.580;2022-12-18T09:35:18;102584.34;;;-4.08;98.02
60307;BME280;46155;52.364;6.580;2022-12-18T09:37:44;102571.25;;;-4.04;98.66
60307;BME280;46155;52.364;6.580;2022-12-18T09:40:14;102560.31;;;-4.08;97.95
60307;BME280;46155;52.364;6.580;2022-12-18T09:42:39;102577.25;;;-3.92;97.58
60307;BME280;46155;52.364;6.580;2022-12-18T09:45:07;102579.06;;;-3.79;96.92
60307;BME280;46155;52.364;6.580;2022-12-18T09:47:38;102562.81;;;-3.97;96.41
60307;BME280;46155;52.364;6.580;2022-12-18T09:50:15;102576.09;;;-3.88;96.95
60307;BME280;46155;52.364;6.580;2022-12-18T09:52:48;102565.53;;;-3.84;97.48
60307;BME280;46155;52.364;6.580;2022-12-18T09:55:27;102580.88;;;-3.78;97.09
60307;BME280;46155;52.364;6.580;2022-12-18T10:00:53;102590.72;;;-3.82;96.92
60307;BME280;46155;52.364;6.580;2022-12-18T10:03:20;102596.09;;;-3.86;97.08
60307;BME280;46155;52.364;6.580;2022-12-18T10:09:34;102579.50;;;-3.76;97.71
60307;BME280;46155;52.364;6.580;2022-12-18T10:12:17;102566.91;;;-3.81;96.93
60307;BME280;46155;52.364;6.580;2022-12-18T10:15:11;102558.97;;;-3.76;97.17
60307;BME280;46155;52.364;6.580;2022-12-18T10:20:13;102526.28;;;-3.77;97.91
60307;BME280;46155;52.364;6.580;2022-12-18T10:23:00;102528.34;;;-3.69;97.55
60307;BME280;46155;52.364;6.580;2022-12-18T10:25:53;102500.38;;;-3.73;97.40
60307;BME280;46155;52.364;6.580;2022-12-18T10:28:20;102500.94;;;-3.57;97.58
60307;BME280;46155;52.364;6.580;2022-12-18T10:30:47;102501.34;;;-3.49;96.83
60307;BME280;46155;52.364;6.580;2022-12-18T10:33:21;102495.66;;;-3.40;96.19
60307;BME280;46155;52.364;6.580;2022-12-18T10:35:49;102484.91;;;-3.38;96.26
60307;BME280;46155;52.364;6.580;2022-12-18T10:43:29;102468.34;;;-3.40;96.37
60307;BME280;46155;52.364;6.580;2022-12-18T10:45:59;102478.72;;;-3.27;96.10
60307;BME280;46155;52.364;6.580;2022-12-18T10:48:26;102478.19;;;-3.19;95.86
60307;BME280;46155;52.364;6.580;2022-12-18T10:50:52;102484.63;;;-3.09;95.50
60307;BME280;46155;52.364;6.580;2022-12-18T10:53:21;102466.47;;;-3.17;95.29
60307;BME280;46155;52.364;6.580;2022-12-18T10:55:47;102474.63;;;-2.95;95.67
60307;BME280;46155;52.364;6.580;2022-12-18T10:58:29;102458.50;;;-2.94;95.59
60307;BME280;46155;52.364;6.580;2022-12-18T11:01:10;102453.53;;;-2.87;95.33
60307;BME280;46155;52.364;6.580;2022-12-18T11:03:46;102452.97;;;-2.79;95.28
60307;BME280;46155;52.364;6.580;2022-12-18T11:06:15;102443.59;;;-2.78;94.74
60307;BME280;46155;52.364;6.580;2022-12-18T11:08:42;102456.16;;;-2.74;94.61
60307;BME280;46155;52.364;6.580;2022-12-18T11:11:22;102445.38;;;-2.71;93.94
60307;BME280;46155;52.364;6.580;2022-12-18T11:16:22;102434.47;;;-2.76;93.63
60307;BME280;46155;52.364;6.580;2022-12-18T11:18:48;102448.59;;;-2.67;93.79
60307;BME280;46155;52.364;6.580;2022-12-18T11:21:14;102447.66;;;-2.49;93.68
60307;BME280;46155;52.364;6.580;2022-12-18T11:23:50;102442.44;;;-2.43;93.72
60307;BME280;46155;52.364;6.580;2022-12-18T11:26:17;102434.03;;;-2.42;93.03
60307;BME280;46155;52.364;6.580;2022-12-18T11:28:47;102425.63;;;-2.47;93.21
60307;BME280;46155;52.364;6.580;2022-12-18T11:31:28;102432.06;;;-2.37;93.22
60307;BME280;46155;52.364;6.580;2022-12-18T11:36:25;102436.13;;;-2.27;92.40
60307;BME280;46155;52.364;6.580;2022-12-18T11:38:55;102441.00;;;-2.22;92.32
60307;BME280;46155;52.364;6.580;2022-12-18T11:41:29;102436.75;;;-2.22;92.08
60307;BME280;46155;52.364;6.580;2022-12-18T11:44:27;102427.22;;;-2.10;92.05
60307;BME280;46155;52.364;6.580;2022-12-18T11:47:03;102421.56;;;-2.08;91.93
60307;BME280;46155;52.364;6.580;2022-12-18T11:49:35;102420.25;;;-1.98;92.16
60307;BME280;46155;52.364;6.580;2022-12-18T11:54:40;102428.41;;;-1.95;91.26
60307;BME280;46155;52.364;6.580;2022-12-18T11:57:28;102417.19;;;-1.83;91.29
60307;BME280;46155;52.364;6.580;2022-12-18T12:00:04;102417.19;;;-1.83;90.10
60307;BME280;46155;52.364;6.580;2022-12-18T12:02:59;102407.13;;;-1.81;90.67
60307;BME280;46155;52.364;6.580;2022-12-18T12:05:39;102402.56;;;-1.77;90.34
60307;BME280;46155;52.364;6.580;2022-12-18T12:28:02;102336.34;;;-1.65;89.00
60307;BME280;46155;52.364;6.580;2022-12-18T12:38:31;102336.75;;;-1.49;87.69
60307;BME280;46155;52.364;6.580;2022-12-18T12:41:02;102332.00;;;-1.46;87.35
60307;BME280;46155;52.364;6.580;2022-12-18T12:43:50;102335.06;;;-1.35;85.80
60307;BME280;46155;52.364;6.580;2022-12-18T12:46:17;102332.19;;;-1.31;85.28
60307;BME280;46155;52.364;6.580;2022-12-18T12:48:56;102327.75;;;-1.32;85.64
60307;BME280;46155;52.364;6.580;2022-12-18T12:51:32;102327.94;;;-1.31;85.79
60307;BME280;46155;52.364;6.580;2022-12-18T12:54:00;102324.75;;;-1.35;85.06
60307;BME280;46155;52.364;6.580;2022-12-18T12:56:44;102324.53;;;-1.24;85.48
60307;BME280;46155;52.364;6.580;2022-12-18T13:04:49;102304.31;;;-1.21;84.13
60307;BME280;46155;52.364;6.580;2022-12-18T13:12:55;102305.56;;;-0.72;85.34
60307;BME280;46155;52.364;6.580;2022-12-18T13:16:06;102310.47;;;-0.80;82.50
60307;BME280;46155;52.364;6.580;2022-12-18T13:18:33;102313.88;;;-0.87;82.52
60307;BME280;46155;52.364;6.580;2022-12-18T13:25:51;102309.22;;;-1.10;82.50
60307;BME280;46155;52.364;6.580;2022-12-18T13:30:49;102286.34;;;-1.14;82.64
60307;BME280;46155;52.364;6.580;2022-12-18T13:38:23;102288.59;;;-1.10;82.71
60307;BME280;46155;52.364;6.580;2022-12-18T13:43:22;102270.19;;;-1.13;82.60
60307;BME280;46155;52.364;6.580;2022-12-18T13:48:24;102266.06;;;-1.18;82.94
60307;BME280;46155;52.364;6.580;2022-12-18T13:50:59;102258.00;;;-1.14;82.88
60307;BME280;46155;52.364;6.580;2022-12-18T13:56:23;102258.06;;;-1.27;82.47
60307;BME280;46155;52.364;6.580;2022-12-18T14:01:31;102238.34;;;-1.26;82.61
60307;BME280;46155;52.364;6.580;2022-12-18T14:04:11;102232.38;;;-0.99;86.23
60307;BME280;46155;52.364;6.580;2022-12-18T14:06:36;102232.31;;;-1.07;82.74
60307;BME280;46155;52.364;6.580;2022-12-18T14:09:02;102235.63;;;-1.08;82.55
60307;BME280;46155;52.364;6.580;2022-12-18T14:11:28;102232.03;;;-1.15;81.89
60307;BME280;46155;52.364;6.580;2022-12-18T14:13:54;102232.56;;;-1.18;82.27
60307;BME280;46155;52.364;6.580;2022-12-18T14:16:19;102229.97;;;-1.18;82.25
60307;BME280;46155;52.364;6.580;2022-12-18T14:18:49;102231.50;;;-1.13;82.73
60307;BME280;46155;52.364;6.580;2022-12-18T14:21:37;102232.44;;;-1.12;83.09
60307;BME280;46155;52.364;6.580;2022-12-18T14:26:30;102235.53;;;-1.15;83.26
60307;BME280;46155;52.364;6.580;2022-12-18T14:29:17;102233.31;;;-1.19;82.39
60307;BME280;46155;52.364;6.580;2022-12-18T14:31:43;102236.41;;;-1.22;82.60
60307;BME280;46155;52.364;6.580;2022-12-18T14:34:15;102230.22;;;-1.29;82.41
60307;BME280;46155;52.364;6.580;2022-12-18T14:36:41;102230.44;;;-1.28;82.82
60307;BME280;46155;52.364;6.580;2022-12-18T14:39:16;102224.22;;;-1.23;83.33
60307;BME280;46155;52.364;6.580;2022-12-18T14:41:42;102216.31;;;-1.24;83.38
60307;BME280;46155;52.364;6.580;2022-12-18T14:44:07;102213.41;;;-1.20;82.65
60307;BME280;46155;52.364;6.580;2022-12-18T14:46:37;102212.47;;;-1.21;83.38
60307;BME280;46155;52.364;6.580;2022-12-18T14:52:05;102196.81;;;-1.22;83.26
60307;BME280;46155;52.364;6.580;2022-12-18T14:54:32;102196.47;;;-1.18;83.54
60307;BME280;46155;52.364;6.580;2022-12-18T14:57:25;102186.16;;;-1.18;83.27
60307;BME280;46155;52.364;6.580;2022-12-18T14:59:50;102182.28;;;-1.22;83.34
60307;BME280;46155;52.364;6.580;2022-12-18T15:02:27;102179.09;;;-1.26;83.75
60307;BME280;46155;52.364;6.580;2022-12-18T15:07:42;102188.03;;;-1.17;83.41
60307;BME280;46155;52.364;6.580;2022-12-18T15:10:19;102187.25;;;-1.23;84.02
60307;BME280;46155;52.364;6.580;2022-12-18T15:12:49;102185.38;;;-1.24;83.45
60307;BME280;46155;52.364;6.580;2022-12-18T15:20:30;102166.56;;;-1.10;83.52
60307;BME280;46155;52.364;6.580;2022-12-18T15:22:56;102168.19;;;-1.11;83.85
60307;BME280;46155;52.364;6.580;2022-12-18T15:25:32;102161.22;;;-1.12;83.76
60307;BME280;46155;52.364;6.580;2022-12-18T15:27:59;102158.22;;;-1.15;84.38
60307;BME280;46155;52.364;6.580;2022-12-18T15:30:25;102141.13;;;-1.14;84.03
60307;BME280;46155;52.364;6.580;2022-12-18T15:32:51;102129.28;;;-1.19;83.79
60307;BME280;46155;52.364;6.580;2022-12-18T15:35:22;102147.50;;;-1.18;84.72
60307;BME280;46155;52.364;6.580;2022-12-18T15:37:51;102143.88;;;-1.13;84.70
60307;BME280;46155;52.364;6.580;2022-12-18T15:40:19;102138.72;;;-1.13;83.93
60307;BME280;46155;52.364;6.580;2022-12-18T15:42:46;102115.47;;;-1.20;84.20
60307;BME280;46155;52.364;6.580;2022-12-18T15:45:30;102136.22;;;-1.06;84.29
60307;BME280;46155;52.364;6.580;2022-12-18T15:47:56;102130.28;;;-1.12;84.45
60307;BME280;46155;52.364;6.580;2022-12-18T15:50:21;102133.97;;;-1.10;84.74
60307;BME280;46155;52.364;6.580;2022-12-18T15:52:49;102142.97;;;-1.13;84.51
60307;BME280;46155;52.364;6.580;2022-12-18T15:55:21;102150.47;;;-1.15;85.13
60307;BME280;46155;52.364;6.580;2022-12-18T15:58:06;102142.22;;;-1.12;85.14
60307;BME280;46155;52.364;6.580;2022-12-18T16:00:32;102117.34;;;-1.19;85.26
60307;BME280;46155;52.364;6.580;2022-12-18T16:02:58;102137.19;;;-1.18;85.76
60307;BME280;46155;52.364;6.580;2022-12-18T16:05:24;102135.00;;;-1.15;85.83
60307;BME280;46155;52.364;6.580;2022-12-18T16:07:51;102119.56;;;-1.15;86.11
60307;BME280;46155;52.364;6.580;2022-12-18T16:10:16;102109.00;;;-1.24;85.58
60307;BME280;46155;52.364;6.580;2022-12-18T16:12:42;102109.75;;;-0.97;87.34
60307;BME280;46155;52.364;6.580;2022-12-18T16:15:10;102112.38;;;-0.90;86.72
60307;BME280;46155;52.364;6.580;2022-12-18T16:17:38;102096.16;;;-0.96;85.87
60307;BME280;46155;52.364;6.580;2022-12-18T16:20:04;102109.75;;;-0.97;86.13
60307;BME280;46155;52.364;6.580;2022-12-18T16:22:30;102114.69;;;-1.06;86.21
60307;BME280;46155;52.364;6.580;2022-12-18T16:24:56;102100.47;;;-1.10;86.12
60307;BME280;46155;52.364;6.580;2022-12-18T16:27:22;102080.69;;;-1.16;86.93
60307;BME280;46155;52.364;6.580;2022-12-18T16:29:48;102088.91;;;-1.26;86.72
60307;BME280;46155;52.364;6.580;2022-12-18T16:32:17;102094.06;;;-1.26;87.57
60307;BME280;46155;52.364;6.580;2022-12-18T16:34:43;102091.94;;;-1.16;87.81
60307;BME280;46155;52.364;6.580;2022-12-18T16:37:09;102093.41;;;-1.18;88.20
60307;BME280;46155;52.364;6.580;2022-12-18T16:39:36;102086.13;;;-1.28;87.95
60307;BME280;46155;52.364;6.580;2022-12-18T16:42:04;102100.16;;;-1.26;87.92
60307;BME280;46155;52.364;6.580;2022-12-18T16:44:30;102084.88;;;-1.24;88.50
60307;BME280;46155;52.364;6.580;2022-12-18T16:46:55;102085.09;;;-1.23;88.27
60307;BME280;46155;52.364;6.580;2022-12-18T16:49:27;102075.31;;;-1.25;88.95
60307;BME280;46155;52.364;6.580;2022-12-18T16:51:52;102073.44;;;-1.26;88.67
60307;BME280;46155;52.364;6.580;2022-12-18T16:54:17;102076.63;;;-1.22;88.65
60307;BME280;46155;52.364;6.580;2022-12-18T16:56:43;102078.00;;;-1.31;89.38
60307;BME280;46155;52.364;6.580;2022-12-18T16:59:10;102071.81;;;-1.26;88.72
60307;BME280;46155;52.364;6.580;2022-12-18T17:01:35;102067.56;;;-1.25;88.73
60307;BME280;46155;52.364;6.580;2022-12-18T17:04:02;102051.91;;;-1.27;89.69
60307;BME280;46155;52.364;6.580;2022-12-18T17:06:30;102044.38;;;-1.25;88.90
60307;BME280;46155;52.364;6.580;2022-12-18T17:08:57;102051.59;;;-1.23;89.51
60307;BME280;46155;52.364;6.580;2022-12-18T17:11:24;102062.09;;;-1.21;89.52
60307;BME280;46155;52.364;6.580;2022-12-18T17:13:50;102040.56;;;-1.22;89.17
60307;BME280;46155;52.364;6.580;2022-12-18T17:16:16;102058.72;;;-1.27;90.12
60307;BME280;46155;52.364;6.580;2022-12-18T17:18:42;102044.38;;;-1.25;89.75
60307;BME280;46155;52.364;6.580;2022-12-18T17:21:08;102053.38;;;-1.29;89.06
60307;BME280;46155;52.364;6.580;2022-12-18T17:23:35;102056.53;;;-1.24;89.88
60307;BME280;46155;52.364;6.580;2022-12-18T17:26:01;102044.03;;;-1.21;89.41
60307;BME280;46155;52.364;6.580;2022-12-18T17:28:28;102036.47;;;-1.27;89.29
60307;BME280;46155;52.364;6.580;2022-12-18T17:30:54;102034.88;;;-1.19;88.88
60307;BME280;46155;52.364;6.580;2022-12-18T17:33:21;102026.00;;;-1.21;89.05
60307;BME280;46155;52.364;6.580;2022-12-18T17:35:46;102035.03;;;-1.25;89.29
60307;BME280;46155;52.364;6.580;2022-12-18T17:38:12;102025.25;;;-1.27;90.17
60307;BME280;46155;52.364;6.580;2022-12-18T17:40:38;102027.28;;;-1.25;89.70
60307;BME280;46155;52.364;6.580;2022-12-18T17:43:05;102026.91;;;-1.21;89.22
60307;BME280;46155;52.364;6.580;2022-12-18T17:45:30;102020.13;;;-1.20;89.59
60307;BME280;46155;52.364;6.580;2022-12-18T17:47:55;102019.59;;;-1.17;89.24
60307;BME280;46155;52.364;6.580;2022-12-18T17:50:21;102010.53;;;-1.21;89.05
60307;BME280;46155;52.364;6.580;2022-12-18T17:52:46;102010.59;;;-1.14;88.78
60307;BME280;46155;52.364;6.580;2022-12-18T17:55:11;102017.22;;;-1.16;88.51
60307;BME280;46155;52.364;6.580;2022-12-18T17:57:37;102017.03;;;-1.17;88.84
60307;BME280;46155;52.364;6.580;2022-12-18T18:00:04;102013.31;;;-1.19;89.06
60307;BME280;46155;52.364;6.580;2022-12-18T18:02:30;102019.03;;;-1.15;89.65
60307;BME280;46155;52.364;6.580;2022-12-18T18:04:55;102017.41;;;-1.14;88.87
60307;BME280;46155;52.364;6.580;2022-12-18T18:07:21;101995.03;;;-1.28;88.66
60307;BME280;46155;52.364;6.580;2022-12-18T18:09:46;102018.31;;;-1.14;89.19
60307;BME280;46155;52.364;6.580;2022-12-18T18:12:11;102019.47;;;-1.12;89.02
60307;BME280;46155;52.364;6.580;2022-12-18T18:14:55;102004.72;;;-1.13;89.59
60307;BME280;46155;52.364;6.580;2022-12-18T18:17:20;102004.16;;;-1.17;88.85
60307;BME280;46155;52.364;6.580;2022-12-18T18:19:46;102011.31;;;-1.15;88.78
60307;BME280;46155;52.364;6.580;2022-12-18T18:22:11;102015.03;;;-1.13;89.57
60307;BME280;46155;52.364;6.580;2022-12-18T18:24:36;102014.31;;;-1.12;89.42
60307;BME280;46155;52.364;6.580;2022-12-18T18:27:02;102011.31;;;-1.15;89.59
60307;BME280;46155;52.364;6.580;2022-12-18T18:29:28;102010.41;;;-1.15;89.29
60307;BME280;46155;52.364;6.580;2022-12-18T18:31:57;102017.78;;;-1.11;89.59